sensor_id;sensor_type;location;lat;lon;timestamp;temperature;humidity
28336;DHT22;15592;53.656;7.276;2023-09-07T00:01:55;18.40;99.90
28336;DHT22;15592;53.656;7.276;2023-09-07T00:04:21;18.40;99.90
28336;DHT22;15592;53.656;7.276;2023-09-07T00:06:49;18.40;99.90
28336;DHT22;15592;53.656;7.276;2023-09-07T00:09:15;18.40;99.90
28336;DHT22;15592;53.656;7.276;2023-09-07T00:11:44;18.40;99.90
28336;DHT22;15592;53.656;7.276;2023-09-07T00:14:09;18.40;99.90
28336;DHT22;15592;53.656;7.276;2023-09-07T00:16:35;18.40;99.90
28336;DHT22;15592;53.656;7.276;2023-09-07T00:19:01;18.40;99.90
28336;DHT22;15592;53.656;7.276;2023-09-07T00:21:30;18.40;99.90
28336;DHT22;15592;53.656;7.276;2023-09-07T00:23:55;18.40;99.90
28336;DHT22;15592;53.656;7.276;2023-09-07T00:26:21;18.40;99.90
28336;DHT22;15592;53.656;7.276;2023-09-07T00:28:47;18.40;99.90
28336;DHT22;15592;53.656;7.276;2023-09-07T00:31:13;18.40;99.90
28336;DHT22;15592;53.656;7.276;2023-09-07T00:33:38;18.40;99.90
28336;DHT22;15592;53.656;7.276;2023-09-07T00:36:04;18.40;99.90
28336;DHT22;15592;53.656;7.276;2023-09-07T00:38:30;18.40;99.90
28336;DHT22;15592;53.656;7.276;2023-09-07T00:40:56;18.40;99.90
28336;DHT22;15592;53.656;7.276;2023-09-07T00:43:22;18.40;99.90
28336;DHT22;15592;53.656;7.276;2023-09-07T00:45:47;18.40;99.90
28336;DHT22;15592;53.656;7.276;2023-09-07T00:48:14;18.40;99.90
28336;DHT22;15592;53.656;7.276;2023-09-07T00:50:40;18.40;99.90
28336;DHT22;15592;53.656;7.276;2023-09-07T00:53:06;18.40;99.90
28336;DHT22;15592;53.656;7.276;2023-09-07T00:55:33;18.40;99.90
28336;DHT22;15592;53.656;7.276;2023-09-07T00:58:01;18.30;99.90
28336;DHT22;15592;53.656;7.276;2023-09-07T01:00:27;18.40;99.90
28336;DHT22;15592;53.656;7.276;2023-09-07T01:02:53;18.40;99.90
28336;DHT22;15592;53.656;7.276;2023-09-07T01:05:21;18.30;99.90
28336;DHT22;15592;53.656;7.276;2023-09-07T01:07:56;18.30;99.90
28336;DHT22;15592;53.656;7.276;2023-09-07T01:10:23;18.30;99.90
28336;DHT22;15592;53.656;7.276;2023-09-07T01:12:49;18.30;99.90
28336;DHT22;15592;53.656;7.276;2023-09-07T01:15:15;18.20;99.90
28336;DHT22;15592;53.656;7.276;2023-09-07T01:17:40;18.30;99.90
28336;DHT22;15592;53.656;7.276;2023-09-07T01:20:07;18.30;99.90
28336;DHT22;15592;53.656;7.276;2023-09-07T01:22:36;18.30;99.90
28336;DHT22;15592;53.656;7.276;2023-09-07T01:25:02;18.20;99.90
28336;DHT22;15592;53.656;7.276;2023-09-07T01:27:30;18.20;99.90
28336;DHT22;15592;53.656;7.276;2023-09-07T01:29:56;18.20;99.90
28336;DHT22;15592;53.656;7.276;2023-09-07T01:32:22;18.20;99.90
28336;DHT22;15592;53.656;7.276;2023-09-07T01:34:49;18.20;99.90
28336;DHT22;15592;53.656;7.276;2023-09-07T01:37:15;18.20;99.90
28336;DHT22;15592;53.656;7.276;2023-09-07T01:39:40;18.10;99.90
28336;DHT22;15592;53.656;7.276;2023-09-07T01:42:06;18.10;99.90
28336;DHT22;15592;53.656;7.276;2023-09-07T01:44:31;18.10;99.90
28336;DHT22;15592;53.656;7.276;2023-09-07T01:46:57;18.00;99.90
28336;DHT22;15592;53.656;7.276;2023-09-07T01:49:23;18.00;99.90
28336;DHT22;15592;53.656;7.276;2023-09-07T01:51:51;18.00;99.90
28336;DHT22;15592;53.656;7.276;2023-09-07T01:54:17;18.00;99.90
28336;DHT22;15592;53.656;7.276;2023-09-07T01:56:42;17.90;99.90
28336;DHT22;15592;53.656;7.276;2023-09-07T01:59:08;17.90;99.90
28336;DHT22;15592;53.656;7.276;2023-09-07T02:01:33;17.90;99.90
28336;DHT22;15592;53.656;7.276;2023-09-07T02:04:02;17.80;99.90
28336;DHT22;15592;53.656;7.276;2023-09-07T02:06:28;17.80;99.90
28336;DHT22;15592;53.656;7.276;2023-09-07T02:08:53;17.80;99.90
28336;DHT22;15592;53.656;7.276;2023-09-07T02:11:19;17.70;99.90
28336;DHT22;15592;53.656;7.276;2023-09-07T02:13:46;17.70;99.90
28336;DHT22;15592;53.656;7.276;2023-09-07T02:16:12;17.70;99.90
28336;DHT22;15592;53.656;7.276;2023-09-07T02:18:38;17.70;99.90
28336;DHT22;15592;53.656;7.276;2023-09-07T02:21:09;17.70;99.90
28336;DHT22;15592;53.656;7.276;2023-09-07T02:23:34;17.70;99.90
28336;DHT22;15592;53.656;7.276;2023-09-07T02:26:02;17.70;99.90
28336;DHT22;15592;53.656;7.276;2023-09-07T02:28:27;17.80;99.90
28336;DHT22;15592;53.656;7.276;2023-09-07T02:30:53;17.80;99.90
28336;DHT22;15592;53.656;7.276;2023-09-07T02:33:19;17.80;99.90
28336;DHT22;15592;53.656;7.276;2023-09-07T02:35:44;17.80;99.90
28336;DHT22;15592;53.656;7.276;2023-09-07T02:38:10;17.80;99.90
28336;DHT22;15592;53.656;7.276;2023-09-07T02:40:43;17.80;99.90
28336;DHT22;15592;53.656;7.276;2023-09-07T02:43:10;17.80;99.90
28336;DHT22;15592;53.656;7.276;2023-09-07T02:45:35;17.90;99.90
28336;DHT22;15592;53.656;7.276;2023-09-07T02:48:01;17.80;99.90
28336;DHT22;15592;53.656;7.276;2023-09-07T02:50:31;17.80;99.90
28336;DHT22;15592;53.656;7.276;2023-09-07T02:52:57;17.80;99.90
28336;DHT22;15592;53.656;7.276;2023-09-07T02:55:23;17.80;99.90
28336;DHT22;15592;53.656;7.276;2023-09-07T02:57:48;17.80;99.90
28336;DHT22;15592;53.656;7.276;2023-09-07T03:00:14;17.80;99.90
28336;DHT22;15592;53.656;7.276;2023-09-07T03:02:45;17.70;99.90
28336;DHT22;15592;53.656;7.276;2023-09-07T03:05:11;17.70;99.90
28336;DHT22;15592;53.656;7.276;2023-09-07T03:07:37;17.70;99.90
28336;DHT22;15592;53.656;7.276;2023-09-07T03:10:05;17.70;99.90
28336;DHT22;15592;53.656;7.276;2023-09-07T03:12:30;17.60;99.90
28336;DHT22;15592;53.656;7.276;2023-09-07T03:14:56;17.60;99.90
28336;DHT22;15592;53.656;7.276;2023-09-07T03:17:21;17.50;99.90
28336;DHT22;15592;53.656;7.276;2023-09-07T03:19:47;17.50;99.90
28336;DHT22;15592;53.656;7.276;2023-09-07T03:22:13;17.50;99.90
28336;DHT22;15592;53.656;7.276;2023-09-07T03:24:39;17.40;99.90
28336;DHT22;15592;53.656;7.276;2023-09-07T03:27:05;17.40;99.90
28336;DHT22;15592;53.656;7.276;2023-09-07T03:29:34;17.40;99.90
28336;DHT22;15592;53.656;7.276;2023-09-07T03:32:01;17.30;99.90
28336;DHT22;15592;53.656;7.276;2023-09-07T03:34:26;17.20;99.90
28336;DHT22;15592;53.656;7.276;2023-09-07T03:36:52;17.20;99.90
28336;DHT22;15592;53.656;7.276;2023-09-07T03:39:18;17.20;99.90
28336;DHT22;15592;53.656;7.276;2023-09-07T03:41:44;17.10;99.90
28336;DHT22;15592;53.656;7.276;2023-09-07T03:44:10;17.10;99.90
28336;DHT22;15592;53.656;7.276;2023-09-07T03:46:36;17.10;99.90
28336;DHT22;15592;53.656;7.276;2023-09-07T03:49:02;17.10;99.90
28336;DHT22;15592;53.656;7.276;2023-09-07T03:51:28;17.10;99.90
28336;DHT22;15592;53.656;7.276;2023-09-07T03:53:53;17.00;99.90
28336;DHT22;15592;53.656;7.276;2023-09-07T03:56:19;17.00;99.90
28336;DHT22;15592;53.656;7.276;2023-09-07T03:58:45;17.00;99.90
28336;DHT22;15592;53.656;7.276;2023-09-07T04:01:13;16.90;99.90
28336;DHT22;15592;53.656;7.276;2023-09-07T04:03:39;16.90;99.90
28336;DHT22;15592;53.656;7.276;2023-09-07T04:06:06;16.90;99.90
28336;DHT22;15592;53.656;7.276;2023-09-07T04:08:32;16.80;99.90
28336;DHT22;15592;53.656;7.276;2023-09-07T04:10:57;16.80;99.90
28336;DHT22;15592;53.656;7.276;2023-09-07T04:13:23;16.80;99.90
28336;DHT22;15592;53.656;7.276;2023-09-07T04:15:49;16.80;99.90
28336;DHT22;15592;53.656;7.276;2023-09-07T04:18:15;16.70;99.90
28336;DHT22;15592;53.656;7.276;2023-09-07T04:20:42;16.70;99.90
28336;DHT22;15592;53.656;7.276;2023-09-07T04:23:07;16.60;99.90
28336;DHT22;15592;53.656;7.276;2023-09-07T04:25:33;16.60;99.90
28336;DHT22;15592;53.656;7.276;2023-09-07T04:27:59;16.50;99.90
28336;DHT22;15592;53.656;7.276;2023-09-07T04:30:24;16.50;99.90
28336;DHT22;15592;53.656;7.276;2023-09-07T04:32:50;16.50;99.90
28336;DHT22;15592;53.656;7.276;2023-09-07T04:35:16;16.40;99.90
28336;DHT22;15592;53.656;7.276;2023-09-07T04:37:42;16.40;99.90
28336;DHT22;15592;53.656;7.276;2023-09-07T04:40:09;16.30;99.90
28336;DHT22;15592;53.656;7.276;2023-09-07T04:42:35;16.30;99.90
28336;DHT22;15592;53.656;7.276;2023-09-07T04:45:00;16.30;99.90
28336;DHT22;15592;53.656;7.276;2023-09-07T04:47:26;16.20;99.90
28336;DHT22;15592;53.656;7.276;2023-09-07T04:49:52;16.20;99.90
28336;DHT22;15592;53.656;7.276;2023-09-07T04:52:18;16.10;99.90
28336;DHT22;15592;53.656;7.276;2023-09-07T04:54:44;16.10;99.90
28336;DHT22;15592;53.656;7.276;2023-09-07T04:57:10;16.10;99.90
28336;DHT22;15592;53.656;7.276;2023-09-07T04:59:36;16.10;99.90
28336;DHT22;15592;53.656;7.276;2023-09-07T05:02:01;16.00;99.90
28336;DHT22;15592;53.656;7.276;2023-09-07T05:04:28;16.00;99.90
28336;DHT22;15592;53.656;7.276;2023-09-07T05:06:55;16.00;99.90
28336;DHT22;15592;53.656;7.276;2023-09-07T05:09:21;16.10;99.90
28336;DHT22;15592;53.656;7.276;2023-09-07T05:11:47;16.10;99.90
28336;DHT22;15592;53.656;7.276;2023-09-07T05:14:12;16.10;99.90
28336;DHT22;15592;53.656;7.276;2023-09-07T05:16:38;16.20;99.90
28336;DHT22;15592;53.656;7.276;2023-09-07T05:19:03;16.20;99.90
28336;DHT22;15592;53.656;7.276;2023-09-07T05:21:29;16.20;99.90
28336;DHT22;15592;53.656;7.276;2023-09-07T05:23:55;16.30;99.90
28336;DHT22;15592;53.656;7.276;2023-09-07T05:26:22;16.20;99.90
28336;DHT22;15592;53.656;7.276;2023-09-07T05:28:49;16.30;99.90
28336;DHT22;15592;53.656;7.276;2023-09-07T05:31:14;16.30;99.90
28336;DHT22;15592;53.656;7.276;2023-09-07T05:33:40;16.30;99.90
28336;DHT22;15592;53.656;7.276;2023-09-07T05:36:06;16.30;99.90
28336;DHT22;15592;53.656;7.276;2023-09-07T05:38:31;16.30;99.90
28336;DHT22;15592;53.656;7.276;2023-09-07T05:40:57;16.30;99.90
28336;DHT22;15592;53.656;7.276;2023-09-07T05:43:23;16.40;99.90
28336;DHT22;15592;53.656;7.276;2023-09-07T05:45:48;16.40;99.90
28336;DHT22;15592;53.656;7.276;2023-09-07T05:48:14;16.40;99.90
28336;DHT22;15592;53.656;7.276;2023-09-07T05:50:42;16.40;99.90
28336;DHT22;15592;53.656;7.276;2023-09-07T05:53:08;16.40;99.90
28336;DHT22;15592;53.656;7.276;2023-09-07T05:55:34;16.50;99.90
28336;DHT22;15592;53.656;7.276;2023-09-07T05:57:59;16.50;99.90
28336;DHT22;15592;53.656;7.276;2023-09-07T06:00:25;16.50;99.90
28336;DHT22;15592;53.656;7.276;2023-09-07T06:02:51;16.50;99.90
28336;DHT22;15592;53.656;7.276;2023-09-07T06:05:17;16.60;99.90
28336;DHT22;15592;53.656;7.276;2023-09-07T06:07:43;16.60;99.90
28336;DHT22;15592;53.656;7.276;2023-09-07T06:10:09;16.60;99.90
28336;DHT22;15592;53.656;7.276;2023-09-07T06:12:35;16.70;99.90
28336;DHT22;15592;53.656;7.276;2023-09-07T06:15:01;16.70;99.90
28336;DHT22;15592;53.656;7.276;2023-09-07T06:17:28;16.70;99.90
28336;DHT22;15592;53.656;7.276;2023-09-07T06:19:54;16.80;99.90
28336;DHT22;15592;53.656;7.276;2023-09-07T06:22:20;16.80;99.90
28336;DHT22;15592;53.656;7.276;2023-09-07T06:24:45;16.80;99.90
28336;DHT22;15592;53.656;7.276;2023-09-07T06:27:11;16.90;99.90
28336;DHT22;15592;53.656;7.276;2023-09-07T06:29:37;17.00;99.90
28336;DHT22;15592;53.656;7.276;2023-09-07T06:32:02;17.00;99.90
28336;DHT22;15592;53.656;7.276;2023-09-07T06:34:28;17.10;99.90
28336;DHT22;15592;53.656;7.276;2023-09-07T06:36:54;17.00;99.90
28336;DHT22;15592;53.656;7.276;2023-09-07T06:39:19;17.10;99.90
28336;DHT22;15592;53.656;7.276;2023-09-07T06:41:46;17.20;99.90
28336;DHT22;15592;53.656;7.276;2023-09-07T06:44:12;17.30;99.90
28336;DHT22;15592;53.656;7.276;2023-09-07T06:46:37;17.30;99.90
28336;DHT22;15592;53.656;7.276;2023-09-07T06:49:03;17.40;99.90
28336;DHT22;15592;53.656;7.276;2023-09-07T06:51:30;17.40;99.90
28336;DHT22;15592;53.656;7.276;2023-09-07T06:53:57;17.50;99.90
28336;DHT22;15592;53.656;7.276;2023-09-07T06:56:23;17.50;99.90
28336;DHT22;15592;53.656;7.276;2023-09-07T06:58:49;17.60;99.90
28336;DHT22;15592;53.656;7.276;2023-09-07T07:01:14;17.60;99.90
28336;DHT22;15592;53.656;7.276;2023-09-07T07:03:41;17.70;99.90
28336;DHT22;15592;53.656;7.276;2023-09-07T07:06:07;17.80;99.90
28336;DHT22;15592;53.656;7.276;2023-09-07T07:08:33;17.80;99.90
28336;DHT22;15592;53.656;7.276;2023-09-07T07:10:58;17.90;99.90
28336;DHT22;15592;53.656;7.276;2023-09-07T07:13:25;18.00;99.90
28336;DHT22;15592;53.656;7.276;2023-09-07T07:15:51;18.00;99.90
28336;DHT22;15592;53.656;7.276;2023-09-07T07:18:17;18.10;99.90
28336;DHT22;15592;53.656;7.276;2023-09-07T07:20:43;18.20;99.90
28336;DHT22;15592;53.656;7.276;2023-09-07T07:23:09;18.20;99.90
28336;DHT22;15592;53.656;7.276;2023-09-07T07:25:35;18.30;99.90
28336;DHT22;15592;53.656;7.276;2023-09-07T07:28:03;18.40;99.90
28336;DHT22;15592;53.656;7.276;2023-09-07T07:30:32;18.50;99.90
28336;DHT22;15592;53.656;7.276;2023-09-07T07:32:57;18.50;99.90
28336;DHT22;15592;53.656;7.276;2023-09-07T07:35:23;18.60;99.90
28336;DHT22;15592;53.656;7.276;2023-09-07T07:37:52;18.60;99.90
28336;DHT22;15592;53.656;7.276;2023-09-07T07:40:18;18.70;99.90
28336;DHT22;15592;53.656;7.276;2023-09-07T07:42:47;18.80;99.90
28336;DHT22;15592;53.656;7.276;2023-09-07T07:45:13;18.80;99.90
28336;DHT22;15592;53.656;7.276;2023-09-07T07:47:42;18.90;99.90
28336;DHT22;15592;53.656;7.276;2023-09-07T07:50:08;19.00;99.90
28336;DHT22;15592;53.656;7.276;2023-09-07T07:52:34;19.00;99.90
28336;DHT22;15592;53.656;7.276;2023-09-07T07:55:00;19.10;99.90
28336;DHT22;15592;53.656;7.276;2023-09-07T07:57:25;19.20;99.90
28336;DHT22;15592;53.656;7.276;2023-09-07T07:59:51;19.20;99.90
28336;DHT22;15592;53.656;7.276;2023-09-07T08:02:17;19.30;99.90
28336;DHT22;15592;53.656;7.276;2023-09-07T08:04:42;19.30;99.90
28336;DHT22;15592;53.656;7.276;2023-09-07T08:07:08;19.40;99.90
28336;DHT22;15592;53.656;7.276;2023-09-07T08:09:34;19.50;99.90
28336;DHT22;15592;53.656;7.276;2023-09-07T08:12:00;19.50;99.90
28336;DHT22;15592;53.656;7.276;2023-09-07T08:14:29;19.60;99.90
28336;DHT22;15592;53.656;7.276;2023-09-07T08:16:57;19.60;99.90
28336;DHT22;15592;53.656;7.276;2023-09-07T08:19:23;19.70;99.90
28336;DHT22;15592;53.656;7.276;2023-09-07T08:21:48;19.80;99.90
28336;DHT22;15592;53.656;7.276;2023-09-07T08:24:14;19.80;99.90
28336;DHT22;15592;53.656;7.276;2023-09-07T08:26:40;19.90;99.90
28336;DHT22;15592;53.656;7.276;2023-09-07T08:29:08;19.90;99.90
28336;DHT22;15592;53.656;7.276;2023-09-07T08:31:40;20.10;99.90
28336;DHT22;15592;53.656;7.276;2023-09-07T08:34:06;20.10;99.90
28336;DHT22;15592;53.656;7.276;2023-09-07T08:36:34;20.20;99.90
28336;DHT22;15592;53.656;7.276;2023-09-07T08:39:06;20.30;99.90
28336;DHT22;15592;53.656;7.276;2023-09-07T08:41:40;20.30;99.90
28336;DHT22;15592;53.656;7.276;2023-09-07T08:44:18;20.50;99.90
28336;DHT22;15592;53.656;7.276;2023-09-07T08:46:50;20.50;99.90
28336;DHT22;15592;53.656;7.276;2023-09-07T08:49:17;20.60;99.90
28336;DHT22;15592;53.656;7.276;2023-09-07T08:51:49;20.70;99.90
28336;DHT22;15592;53.656;7.276;2023-09-07T08:54:15;20.70;99.90
28336;DHT22;15592;53.656;7.276;2023-09-07T08:56:41;20.80;99.90
28336;DHT22;15592;53.656;7.276;2023-09-07T08:59:07;20.90;99.90
28336;DHT22;15592;53.656;7.276;2023-09-07T09:01:33;20.90;99.90
28336;DHT22;15592;53.656;7.276;2023-09-07T09:03:59;21.00;99.90
28336;DHT22;15592;53.656;7.276;2023-09-07T09:06:27;21.10;99.90
28336;DHT22;15592;53.656;7.276;2023-09-07T09:08:54;21.10;99.90
28336;DHT22;15592;53.656;7.276;2023-09-07T09:11:21;21.20;99.90
28336;DHT22;15592;53.656;7.276;2023-09-07T09:13:51;21.20;99.90
28336;DHT22;15592;53.656;7.276;2023-09-07T09:16:18;21.30;99.90
28336;DHT22;15592;53.656;7.276;2023-09-07T09:19:05;21.40;99.90
28336;DHT22;15592;53.656;7.276;2023-09-07T09:21:31;21.60;99.90
28336;DHT22;15592;53.656;7.276;2023-09-07T09:25:02;21.70;99.90
28336;DHT22;15592;53.656;7.276;2023-09-07T09:27:16;21.70;99.90
28336;DHT22;15592;53.656;7.276;2023-09-07T09:30:26;21.90;99.90
28336;DHT22;15592;53.656;7.276;2023-09-07T09:46:46;22.50;99.90
28336;DHT22;15592;53.656;7.276;2023-09-07T09:59:43;23.00;99.90
28336;DHT22;15592;53.656;7.276;2023-09-07T10:02:10;23.10;99.90
28336;DHT22;15592;53.656;7.276;2023-09-07T10:04:39;23.20;99.90
28336;DHT22;15592;53.656;7.276;2023-09-07T10:13:57;23.50;99.90
28336;DHT22;15592;53.656;7.276;2023-09-07T10:16:23;23.70;99.90
28336;DHT22;15592;53.656;7.276;2023-09-07T10:18:49;23.70;99.90
28336;DHT22;15592;53.656;7.276;2023-09-07T10:21:15;23.80;99.90
28336;DHT22;15592;53.656;7.276;2023-09-07T10:23:44;23.90;99.90
28336;DHT22;15592;53.656;7.276;2023-09-07T10:26:15;24.00;99.90
28336;DHT22;15592;53.656;7.276;2023-09-07T10:28:45;24.10;99.90
28336;DHT22;15592;53.656;7.276;2023-09-07T10:31:16;24.20;99.90
28336;DHT22;15592;53.656;7.276;2023-09-07T10:33:42;24.30;99.90
28336;DHT22;15592;53.656;7.276;2023-09-07T10:36:30;24.30;99.90
28336;DHT22;15592;53.656;7.276;2023-09-07T10:39:07;24.40;99.90
28336;DHT22;15592;53.656;7.276;2023-09-07T10:41:43;24.50;99.90
28336;DHT22;15592;53.656;7.276;2023-09-07T10:44:09;24.50;99.90
28336;DHT22;15592;53.656;7.276;2023-09-07T10:46:44;24.60;99.90
28336;DHT22;15592;53.656;7.276;2023-09-07T10:49:11;24.70;99.90
28336;DHT22;15592;53.656;7.276;2023-09-07T10:51:52;24.80;99.90
28336;DHT22;15592;53.656;7.276;2023-09-07T10:54:23;24.80;99.90
28336;DHT22;15592;53.656;7.276;2023-09-07T10:56:50;24.90;99.90
28336;DHT22;15592;53.656;7.276;2023-09-07T10:59:18;24.90;99.90
28336;DHT22;15592;53.656;7.276;2023-09-07T11:02:02;24.90;99.90
28336;DHT22;15592;53.656;7.276;2023-09-07T11:04:44;25.00;99.90
28336;DHT22;15592;53.656;7.276;2023-09-07T11:07:13;25.10;99.90
28336;DHT22;15592;53.656;7.276;2023-09-07T11:09:42;25.10;99.90
28336;DHT22;15592;53.656;7.276;2023-09-07T11:12:08;25.10;99.90
28336;DHT22;15592;53.656;7.276;2023-09-07T11:14:39;25.20;99.90
28336;DHT22;15592;53.656;7.276;2023-09-07T11:17:13;25.30;99.90
28336;DHT22;15592;53.656;7.276;2023-09-07T11:19:41;25.30;99.90
28336;DHT22;15592;53.656;7.276;2023-09-07T11:22:09;25.30;99.90
28336;DHT22;15592;53.656;7.276;2023-09-07T11:24:35;25.40;99.90
28336;DHT22;15592;53.656;7.276;2023-09-07T11:27:01;25.40;99.90
28336;DHT22;15592;53.656;7.276;2023-09-07T11:29:33;25.40;99.90
28336;DHT22;15592;53.656;7.276;2023-09-07T11:32:10;25.50;99.90
28336;DHT22;15592;53.656;7.276;2023-09-07T11:34:47;25.50;99.90
28336;DHT22;15592;53.656;7.276;2023-09-07T11:37:15;25.50;99.90
28336;DHT22;15592;53.656;7.276;2023-09-07T11:39:40;25.50;99.90
28336;DHT22;15592;53.656;7.276;2023-09-07T11:42:06;25.50;99.90
28336;DHT22;15592;53.656;7.276;2023-09-07T11:44:32;25.50;99.90
28336;DHT22;15592;53.656;7.276;2023-09-07T11:46:57;25.60;99.90
28336;DHT22;15592;53.656;7.276;2023-09-07T11:49:25;25.60;99.90
28336;DHT22;15592;53.656;7.276;2023-09-07T11:51:51;25.70;99.90
28336;DHT22;15592;53.656;7.276;2023-09-07T11:54:17;25.70;99.90
28336;DHT22;15592;53.656;7.276;2023-09-07T11:56:42;25.70;99.90
28336;DHT22;15592;53.656;7.276;2023-09-07T11:59:09;25.70;99.90
28336;DHT22;15592;53.656;7.276;2023-09-07T12:01:35;25.70;99.90
28336;DHT22;15592;53.656;7.276;2023-09-07T12:04:01;25.70;99.90
28336;DHT22;15592;53.656;7.276;2023-09-07T12:06:26;25.70;99.90
28336;DHT22;15592;53.656;7.276;2023-09-07T12:09:04;25.70;99.90
28336;DHT22;15592;53.656;7.276;2023-09-07T12:11:32;25.80;99.90
28336;DHT22;15592;53.656;7.276;2023-09-07T12:13:59;25.80;99.90
28336;DHT22;15592;53.656;7.276;2023-09-07T12:16:28;25.70;99.90
28336;DHT22;15592;53.656;7.276;2023-09-07T12:18:54;25.70;99.90
28336;DHT22;15592;53.656;7.276;2023-09-07T12:21:20;25.80;99.90
28336;DHT22;15592;53.656;7.276;2023-09-07T12:23:46;25.80;99.90
28336;DHT22;15592;53.656;7.276;2023-09-07T12:26:15;25.80;99.90
28336;DHT22;15592;53.656;7.276;2023-09-07T12:28:42;25.80;99.90
28336;DHT22;15592;53.656;7.276;2023-09-07T12:31:07;25.90;99.90
28336;DHT22;15592;53.656;7.276;2023-09-07T12:33:33;25.90;99.90
28336;DHT22;15592;53.656;7.276;2023-09-07T12:35:59;25.90;99.90
28336;DHT22;15592;53.656;7.276;2023-09-07T12:38:25;25.90;99.90
28336;DHT22;15592;53.656;7.276;2023-09-07T12:40:54;25.90;99.90
28336;DHT22;15592;53.656;7.276;2023-09-07T12:43:20;25.90;99.90
28336;DHT22;15592;53.656;7.276;2023-09-07T12:45:46;25.90;99.90
28336;DHT22;15592;53.656;7.276;2023-09-07T12:48:12;25.90;99.90
28336;DHT22;15592;53.656;7.276;2023-09-07T12:50:38;25.90;99.90
28336;DHT22;15592;53.656;7.276;2023-09-07T12:53:05;25.90;99.90
28336;DHT22;15592;53.656;7.276;2023-09-07T12:55:31;25.90;99.90
28336;DHT22;15592;53.656;7.276;2023-09-07T12:57:58;26.00;99.90
28336;DHT22;15592;53.656;7.276;2023-09-07T13:00:24;26.00;99.90
28336;DHT22;15592;53.656;7.276;2023-09-07T13:02:50;26.10;99.90
28336;DHT22;15592;53.656;7.276;2023-09-07T13:05:15;26.10;99.90
28336;DHT22;15592;53.656;7.276;2023-09-07T13:07:41;26.10;99.90
28336;DHT22;15592;53.656;7.276;2023-09-07T13:10:09;26.10;99.90
28336;DHT22;15592;53.656;7.276;2023-09-07T13:12:36;26.10;99.90
28336;DHT22;15592;53.656;7.276;2023-09-07T13:15:03;26.00;99.90
28336;DHT22;15592;53.656;7.276;2023-09-07T13:17:29;26.00;99.90
28336;DHT22;15592;53.656;7.276;2023-09-07T13:19:54;26.00;99.90
28336;DHT22;15592;53.656;7.276;2023-09-07T13:22:20;26.00;99.90
28336;DHT22;15592;53.656;7.276;2023-09-07T13:24:46;26.00;99.90
28336;DHT22;15592;53.656;7.276;2023-09-07T13:27:12;25.90;99.90
28336;DHT22;15592;53.656;7.276;2023-09-07T13:29:37;25.90;99.90
28336;DHT22;15592;53.656;7.276;2023-09-07T13:32:03;25.90;99.90
28336;DHT22;15592;53.656;7.276;2023-09-07T13:34:29;25.90;99.90
28336;DHT22;15592;53.656;7.276;2023-09-07T13:36:55;25.90;99.90
28336;DHT22;15592;53.656;7.276;2023-09-07T13:39:22;26.00;99.90
28336;DHT22;15592;53.656;7.276;2023-09-07T13:41:48;26.00;99.90
28336;DHT22;15592;53.656;7.276;2023-09-07T13:44:14;26.00;99.90
28336;DHT22;15592;53.656;7.276;2023-09-07T13:46:43;26.00;99.90
28336;DHT22;15592;53.656;7.276;2023-09-07T13:49:09;26.00;99.90
28336;DHT22;15592;53.656;7.276;2023-09-07T13:51:35;26.00;99.90
28336;DHT22;15592;53.656;7.276;2023-09-07T13:54:08;26.00;99.90
28336;DHT22;15592;53.656;7.276;2023-09-07T13:56:34;26.00;99.90
28336;DHT22;15592;53.656;7.276;2023-09-07T13:59:01;25.90;99.90
28336;DHT22;15592;53.656;7.276;2023-09-07T14:01:27;26.00;99.90
28336;DHT22;15592;53.656;7.276;2023-09-07T14:03:52;26.00;99.90
28336;DHT22;15592;53.656;7.276;2023-09-07T14:06:18;26.00;99.90
28336;DHT22;15592;53.656;7.276;2023-09-07T14:08:47;25.90;99.90
28336;DHT22;15592;53.656;7.276;2023-09-07T14:11:14;25.90;99.90
28336;DHT22;15592;53.656;7.276;2023-09-07T14:13:40;25.90;99.90
28336;DHT22;15592;53.656;7.276;2023-09-07T14:16:05;25.90;99.90
28336;DHT22;15592;53.656;7.276;2023-09-07T14:18:31;25.90;99.90
28336;DHT22;15592;53.656;7.276;2023-09-07T14:20:56;25.90;99.90
28336;DHT22;15592;53.656;7.276;2023-09-07T14:23:24;25.80;99.90
28336;DHT22;15592;53.656;7.276;2023-09-07T14:25:54;25.80;99.90
28336;DHT22;15592;53.656;7.276;2023-09-07T14:28:20;25.80;99.90
28336;DHT22;15592;53.656;7.276;2023-09-07T14:30:46;25.70;99.90
28336;DHT22;15592;53.656;7.276;2023-09-07T14:33:12;25.70;99.90
28336;DHT22;15592;53.656;7.276;2023-09-07T14:35:37;25.70;99.90
28336;DHT22;15592;53.656;7.276;2023-09-07T14:38:03;25.70;99.90
28336;DHT22;15592;53.656;7.276;2023-09-07T14:40:29;25.70;99.90
28336;DHT22;15592;53.656;7.276;2023-09-07T14:42:55;25.60;99.90
28336;DHT22;15592;53.656;7.276;2023-09-07T14:45:25;25.60;99.90
28336;DHT22;15592;53.656;7.276;2023-09-07T14:47:51;25.50;99.90
28336;DHT22;15592;53.656;7.276;2023-09-07T14:50:18;25.50;99.90
28336;DHT22;15592;53.656;7.276;2023-09-07T14:52:43;25.50;99.90
28336;DHT22;15592;53.656;7.276;2023-09-07T14:55:13;25.50;99.90
28336;DHT22;15592;53.656;7.276;2023-09-07T14:57:39;25.50;99.90
28336;DHT22;15592;53.656;7.276;2023-09-07T15:00:06;25.50;99.90
28336;DHT22;15592;53.656;7.276;2023-09-07T15:02:31;25.50;99.90
28336;DHT22;15592;53.656;7.276;2023-09-07T15:04:57;25.50;99.90
28336;DHT22;15592;53.656;7.276;2023-09-07T15:07:22;25.50;99.90
28336;DHT22;15592;53.656;7.276;2023-09-07T15:09:51;25.50;99.90
28336;DHT22;15592;53.656;7.276;2023-09-07T15:12:16;25.40;99.90
28336;DHT22;15592;53.656;7.276;2023-09-07T15:14:42;25.40;99.90
28336;DHT22;15592;53.656;7.276;2023-09-07T15:17:10;25.40;99.90
28336;DHT22;15592;53.656;7.276;2023-09-07T15:19:36;25.30;99.90
28336;DHT22;15592;53.656;7.276;2023-09-07T15:22:01;25.30;99.90
28336;DHT22;15592;53.656;7.276;2023-09-07T15:24:27;25.30;99.90
28336;DHT22;15592;53.656;7.276;2023-09-07T15:26:52;25.30;99.90
28336;DHT22;15592;53.656;7.276;2023-09-07T15:29:18;25.30;99.90
28336;DHT22;15592;53.656;7.276;2023-09-07T15:31:44;25.20;99.90
28336;DHT22;15592;53.656;7.276;2023-09-07T15:34:10;25.20;99.90
28336;DHT22;15592;53.656;7.276;2023-09-07T15:36:36;25.20;99.90
28336;DHT22;15592;53.656;7.276;2023-09-07T15:39:02;25.20;99.90
28336;DHT22;15592;53.656;7.276;2023-09-07T15:41:28;25.20;99.90
28336;DHT22;15592;53.656;7.276;2023-09-07T15:43:54;25.20;99.90
28336;DHT22;15592;53.656;7.276;2023-09-07T15:46:20;25.20;99.90
28336;DHT22;15592;53.656;7.276;2023-09-07T15:48:46;25.20;99.90
28336;DHT22;15592;53.656;7.276;2023-09-07T15:51:12;25.20;99.90
28336;DHT22;15592;53.656;7.276;2023-09-07T15:53:38;25.20;99.90
28336;DHT22;15592;53.656;7.276;2023-09-07T15:56:04;25.10;99.90
28336;DHT22;15592;53.656;7.276;2023-09-07T15:58:30;25.10;99.90
28336;DHT22;15592;53.656;7.276;2023-09-07T16:00:57;25.10;99.90